Impacts TAF Board
For situational awareness. Not to be used for flight planning purposes.
IDs:

KSAT - San Antonio Intl, TX, US

Issued at 1733 UTC 23 Jan 2020
Updated at 2017 UTC 23 Jan 2020
Potential Impact None Slight Moderate High
Time<<24/09Z 24/10Z 24/11Z 24/12Z 24/13Z 24/14Z 24/15Z 24/16Z 24/17Z 24/18Z 24/19Z 24/20Z 24/21Z>>
Type PRVL PRVL PRVL PRVL PRVL PRVL PRVL PRVL PRVL PRVL PRVL PRVL PRVL
VIS >6 >6 >6 >6 >6 >6 >6 >6 >6 >6 >6 >6 >6
CIG -- -- -- -- -- -- -- -- -- -- -- -- --
Cover SKC SKC SKC SKC SKC SKC SKC SKC SKC SKC SKC SKC SKC
FltCat VFR VFR VFR VFR VFR VFR VFR VFR VFR VFR VFR VFR VFR
WX -- -- -- -- -- -- -- -- -- -- -- -- --
WDir 10 10 10 10 10 10 10 10 10 10 10 10 10
WSpd 6 6 6 6 6 6 6 6 6 6 6 6 6
WGst -- -- -- -- -- -- -- -- -- -- -- -- --
R04/22
XWnd 3 3 3 3 3 3 3 3 3 3 3 3 3
HWnd 5 5 5 5 5 5 5 5 5 5 5 5 5
R12/30
XWnd 5 5 5 5 5 5 5 5 5 5 5 5 5
HWnd -3 -3 -3 -3 -3 -3 -3 -3 -3 -3 -3 -3 -3
Raw TAF
KSAT 231733Z 2318/2424 35011KT P6SM FEW250
  FM240000 01006KT P6SM SKC


METAR Board
Radar Display
Forecast Discussion
For situational awareness. Not to be used for flight planning purposes.